createdAt,value
2016-08-12T00:00:01.272Z,14.78
2016-08-12T00:01:01.239Z,14.81
2016-08-12T00:02:01.313Z,14.79
2016-08-12T00:02:59.873Z,14.78
2016-08-12T00:03:59.876Z,14.68
2016-08-12T00:04:59.911Z,14.81
2016-08-12T00:06:00.643Z,14.7
2016-08-12T00:07:00.692Z,14.78
2016-08-12T00:08:01.379Z,14.82
2016-08-12T00:09:01.497Z,14.74
2016-08-12T00:10:00.711Z,14.86
2016-08-12T00:11:00.827Z,14.87
2016-08-12T00:12:01.483Z,14.78
2016-08-12T00:13:00.780Z,14.85
2016-08-12T00:14:01.504Z,14.89
2016-08-12T00:15:01.542Z,14.82
2016-08-12T00:16:01.542Z,14.85
2016-08-12T00:17:01.571Z,14.87
2016-08-12T00:18:00.363Z,14.89
2016-08-12T00:19:00.214Z,14.92
2016-08-12T00:20:00.282Z,14.87
2016-08-12T00:21:01.660Z,14.85
2016-08-12T00:22:00.282Z,14.96
2016-08-12T00:23:00.979Z,14.79
2016-08-12T00:24:01.806Z,14.87
2016-08-12T00:25:01.725Z,14.92
2016-08-12T00:26:01.057Z,14.93
2016-08-12T00:27:01.783Z,14.89
2016-08-12T00:28:01.793Z,14.89
2016-08-12T00:29:00.498Z,14.92
2016-08-12T00:30:01.131Z,14.81
2016-08-12T00:31:01.134Z,14.93
2016-08-12T00:32:01.872Z,14.94
2016-08-12T00:33:01.438Z,14.92
2016-08-12T00:34:01.208Z,14.92
2016-08-12T00:35:01.319Z,14.99
2016-08-12T00:36:01.247Z,14.96
2016-08-12T00:37:01.279Z,14.99
2016-08-12T00:38:01.292Z,14.93
2016-08-12T00:39:01.322Z,14.93
2016-08-12T00:40:02.042Z,14.94
2016-08-12T00:41:01.365Z,14.93
2016-08-12T00:42:01.379Z,14.97
2016-08-12T00:43:00.773Z,14.92
2016-08-12T00:44:02.128Z,14.9
2016-08-12T00:45:01.444Z,14.97
2016-08-12T00:46:01.550Z,14.99
2016-08-12T00:47:01.474Z,15
2016-08-12T00:49:01.532Z,14.97
2016-08-12T00:50:02.251Z,15.04
2016-08-12T00:51:00.857Z,14.92
2016-08-12T00:52:01.634Z,14.97
2016-08-12T00:53:01.604Z,14.99
2016-08-12T00:54:01.622Z,14.99
2016-08-12T00:55:01.764Z,14.97
2016-08-12T00:56:02.380Z,15
2016-08-12T00:57:01.699Z,14.99
2016-08-12T00:58:01.723Z,14.94
2016-08-12T00:59:01.732Z,15.02
2016-08-12T01:00:01.752Z,14.97
2016-08-12T01:01:01.055Z,14.99
2016-08-12T01:02:02.493Z,15
2016-08-12T01:03:01.813Z,14.99
2016-08-12T01:04:01.832Z,14.94
2016-08-12T01:05:01.932Z,14.96
2016-08-12T01:06:02.571Z,14.9
2016-08-12T01:07:02.655Z,14.94
2016-08-12T01:08:01.918Z,14.99
2016-08-12T01:09:01.941Z,15
2016-08-12T01:10:02.025Z,14.99
2016-08-12T01:11:02.682Z,14.97
2016-08-12T01:12:02.723Z,14.92
2016-08-12T01:13:01.313Z,14.97
2016-08-12T01:14:02.825Z,14.99
2016-08-12T01:15:02.058Z,14.97
2016-08-12T01:16:01.373Z,14.99
2016-08-12T01:17:02.104Z,15
2016-08-12T01:18:02.130Z,14.97
2016-08-12T01:19:02.139Z,14.99
2016-08-12T01:20:01.464Z,14.92
2016-08-12T01:21:02.892Z,14.99
2016-08-12T01:22:02.215Z,14.99
2016-08-12T01:23:02.951Z,14.96
2016-08-12T01:24:02.250Z,14.94
2016-08-12T01:25:01.569Z,14.99
2016-08-12T01:26:02.282Z,14.96
2016-08-12T01:27:02.318Z,14.99
2016-08-12T01:28:02.335Z,14.99
2016-08-12T01:29:02.364Z,14.99
2016-08-12T01:30:01.664Z,15.08
2016-08-12T01:31:01.700Z,15.05
2016-08-12T01:32:01.710Z,15.08
2016-08-12T01:33:01.727Z,15.02
2016-08-12T01:34:03.183Z,14.97
2016-08-12T01:35:02.474Z,15.07
2016-08-12T01:36:02.535Z,15
2016-08-12T01:37:01.883Z,15.1
2016-08-12T01:38:03.253Z,15.14
2016-08-12T01:39:02.552Z,15.15
2016-08-12T01:40:03.300Z,15.15
2016-08-12T01:41:02.614Z,15.14
2016-08-12T01:42:01.928Z,15.14
2016-08-12T01:43:02.703Z,15.11
2016-08-12T01:44:01.952Z,15.14
2016-08-12T01:45:02.681Z,15.17
2016-08-12T01:46:02.002Z,15.14
2016-08-12T01:47:02.740Z,15.12
2016-08-12T01:48:02.770Z,15.14
2016-08-12T01:49:02.872Z,15.08
2016-08-12T01:50:02.803Z,15.22
2016-08-12T01:51:03.554Z,15.14
2016-08-12T01:52:02.833Z,15.08
2016-08-12T01:53:03.549Z,15.12
2016-08-12T01:54:03.585Z,15.08
2016-08-12T01:55:02.905Z,15.14
2016-08-12T01:56:02.283Z,15.15
2016-08-12T01:57:03.653Z,15.15
2016-08-12T01:58:03.679Z,15.19
2016-08-12T01:59:02.975Z,15.11
2016-08-12T02:00:03.753Z,15.22
2016-08-12T02:01:03.091Z,15.12
2016-08-12T02:02:03.804Z,15.19
2016-08-12T02:03:03.073Z,15.23
2016-08-12T02:04:03.793Z,15.15
2016-08-12T02:05:03.223Z,15.14
2016-08-12T02:06:03.878Z,15.08
2016-08-12T02:07:03.200Z,15.27
2016-08-12T02:08:03.168Z,15.22
2016-08-12T02:09:03.893Z,15.19
2016-08-12T02:10:03.220Z,15.17
2016-08-12T02:11:03.333Z,15.14
2016-08-12T02:12:03.952Z,15.23
2016-08-12T02:13:03.382Z,15.12
2016-08-12T02:14:03.292Z,15.25
2016-08-12T02:15:04.135Z,15.18
2016-08-12T02:16:04.044Z,15.25
2016-08-12T02:17:03.344Z,15.25
2016-08-12T02:18:04.065Z,15.25
2016-08-12T02:19:03.392Z,15.27
2016-08-12T02:20:03.405Z,15.25
2016-08-12T02:21:03.441Z,15.29
2016-08-12T02:22:03.473Z,15.27
2016-08-12T02:23:03.474Z,15.26
2016-08-12T02:24:03.516Z,15.23
2016-08-12T02:25:03.530Z,15.23
2016-08-12T02:26:04.258Z,15.27
2016-08-12T02:27:02.843Z,15.26
2016-08-12T02:28:04.283Z,15.26
2016-08-12T02:29:02.895Z,15.26
2016-08-12T02:30:03.623Z,15.26
2016-08-12T02:31:03.662Z,15.29
2016-08-12T02:32:03.670Z,15.29
2016-08-12T02:33:04.382Z,15.25
2016-08-12T02:34:03.715Z,15.25
2016-08-12T02:35:03.800Z,15.26
2016-08-12T02:36:04.464Z,15.25
2016-08-12T02:37:04.504Z,15.25
2016-08-12T02:38:03.792Z,15.3
2016-08-12T02:39:04.523Z,15.27
2016-08-12T02:40:04.543Z,15.26
2016-08-12T02:41:03.873Z,15.25
2016-08-12T02:42:03.894Z,15.26
2016-08-12T02:43:03.898Z,15.32
2016-08-12T02:44:03.914Z,15.35
2016-08-12T02:45:03.312Z,15.26
2016-08-12T02:46:03.962Z,15.25
2016-08-12T02:47:03.978Z,15.25
2016-08-12T02:48:04.096Z,15.19
2016-08-12T02:49:04.737Z,15.25
2016-08-12T02:50:03.333Z,15.26
2016-08-12T02:51:04.073Z,15.25
2016-08-12T02:52:04.083Z,15.26
2016-08-12T02:53:04.108Z,15.25
2016-08-12T02:54:04.136Z,15.27
2016-08-12T02:55:04.133Z,15.26
2016-08-12T02:56:04.903Z,15.25
2016-08-12T02:57:04.893Z,15.26
2016-08-12T02:58:04.222Z,15.26
2016-08-12T02:59:04.931Z,15.27
2016-08-12T03:00:04.242Z,15.32
2016-08-12T03:01:04.365Z,15.19
2016-08-12T03:02:04.300Z,15.26
2016-08-12T03:03:05.090Z,15.29
2016-08-12T03:04:04.343Z,15.32
2016-08-12T03:05:04.372Z,15.26
2016-08-12T03:06:04.382Z,15.3
2016-08-12T03:07:04.411Z,15.29
2016-08-12T03:08:05.145Z,15.33
2016-08-12T03:09:04.433Z,15.3
2016-08-12T03:10:04.472Z,15.33
2016-08-12T03:11:04.486Z,15.3
2016-08-12T03:12:05.193Z,15.35
2016-08-12T03:13:04.522Z,15.33
2016-08-12T03:14:04.560Z,15.36
2016-08-12T03:15:04.655Z,15.3
2016-08-12T03:16:04.584Z,15.27
2016-08-12T03:17:05.305Z,15.3
2016-08-12T03:18:05.393Z,15.41
2016-08-12T03:19:04.653Z,15.35
2016-08-12T03:20:04.688Z,15.3
2016-08-12T03:21:04.693Z,15.36
2016-08-12T03:22:04.723Z,15.43
2016-08-12T03:23:05.454Z,15.45
2016-08-12T03:24:05.454Z,15.43
2016-08-12T03:25:04.792Z,15.36
2016-08-12T03:26:04.805Z,15.39
2016-08-12T03:27:05.533Z,15.37
2016-08-12T03:28:04.853Z,15.39
2016-08-12T03:29:04.860Z,15.48
2016-08-12T03:30:04.974Z,15.5
2016-08-12T03:31:05.626Z,15.44
2016-08-12T03:32:04.233Z,15.43
2016-08-12T03:33:04.235Z,15.44
2016-08-12T03:34:04.963Z,15.43
2016-08-12T03:35:04.278Z,15.43
2016-08-12T03:36:05.075Z,15.48
2016-08-12T03:37:05.745Z,15.5
2016-08-12T03:38:05.822Z,15.44
2016-08-12T03:39:04.366Z,15.51
2016-08-12T03:40:04.433Z,15.41
2016-08-12T03:41:04.455Z,15.48
2016-08-12T03:42:04.425Z,15.51
2016-08-12T03:43:05.864Z,15.48
2016-08-12T03:44:05.896Z,15.43
2016-08-12T03:45:05.196Z,15.45
2016-08-12T03:46:05.958Z,15.43
2016-08-12T03:47:05.227Z,15.43
2016-08-12T03:48:05.964Z,15.47
2016-08-12T03:49:04.826Z,15.52
2016-08-12T03:50:05.300Z,15.5
2016-08-12T03:51:06.060Z,15.5
2016-08-12T03:52:05.334Z,15.51
2016-08-12T03:53:05.370Z,15.52
2016-08-12T03:54:06.096Z,15.52
2016-08-12T03:55:06.123Z,15.52
2016-08-12T03:56:04.723Z,15.5
2016-08-12T03:57:04.755Z,15.52
2016-08-12T03:58:04.822Z,15.52
2016-08-12T03:59:05.502Z,15.55
2016-08-12T04:00:05.613Z,15.54
2016-08-12T04:01:05.531Z,15.57
2016-08-12T04:02:04.881Z,15.51
2016-08-12T04:03:05.568Z,15.55
2016-08-12T04:05:05.634Z,15.59
2016-08-12T04:06:06.353Z,15.6
2016-08-12T04:07:06.375Z,15.57
2016-08-12T04:08:05.051Z,15.57
2016-08-12T04:09:06.425Z,15.59
2016-08-12T04:10:05.032Z,15.54
2016-08-12T04:11:05.033Z,15.57
2016-08-12T04:12:06.623Z,15.51
2016-08-12T04:13:05.794Z,15.62
2016-08-12T04:14:05.810Z,15.66
2016-08-12T04:15:06.641Z,15.62
2016-08-12T04:16:06.615Z,15.67
2016-08-12T04:17:06.769Z,15.7
2016-08-12T04:18:05.180Z,15.69
2016-08-12T04:19:05.443Z,15.73
2016-08-12T04:20:06.644Z,15.72
2016-08-12T04:21:05.964Z,15.73
2016-08-12T04:22:05.984Z,15.78
2016-08-12T04:23:05.995Z,15.69
2016-08-12T04:24:06.712Z,15.67
2016-08-12T04:25:06.043Z,15.78
2016-08-12T04:26:06.074Z,15.76
2016-08-12T04:27:05.380Z,15.81
2016-08-12T04:28:06.165Z,15.85
2016-08-12T04:29:06.819Z,15.9
2016-08-12T04:30:06.856Z,15.96
2016-08-12T04:31:06.174Z,15.94
2016-08-12T04:32:06.899Z,15.98
2016-08-12T04:33:06.194Z,15.98
2016-08-12T04:34:06.483Z,16.06
2016-08-12T04:35:06.271Z,16
2016-08-12T04:36:06.263Z,16.06
2016-08-12T04:37:06.393Z,16.22
2016-08-12T04:38:07.035Z,16.22
2016-08-12T04:39:06.334Z,16.24
2016-08-12T04:40:06.372Z,16.22
2016-08-12T04:41:06.394Z,16.16
2016-08-12T04:42:07.086Z,16.18
2016-08-12T04:43:07.239Z,16.21
2016-08-12T04:44:06.446Z,16.17
2016-08-12T04:45:07.192Z,16.24
2016-08-12T04:46:07.192Z,16.31
2016-08-12T04:47:06.513Z,16.4
2016-08-12T04:48:05.826Z,16.49
2016-08-12T04:49:06.318Z,16.46
2016-08-12T04:50:06.586Z,16.58
2016-08-12T04:51:07.289Z,16.55
2016-08-12T04:52:07.481Z,16.72
2016-08-12T04:53:06.635Z,16.77
2016-08-12T04:54:07.416Z,16.79
2016-08-12T04:55:06.842Z,16.74
2016-08-12T04:56:06.850Z,16.8
2016-08-12T04:57:07.433Z,16.89
2016-08-12T04:58:07.450Z,16.82
2016-08-12T04:59:07.458Z,16.89
2016-08-12T05:00:07.484Z,16.86
2016-08-12T05:01:07.533Z,16.84
2016-08-12T05:02:06.885Z,16.94
2016-08-12T05:03:06.231Z,16.83
2016-08-12T05:05:06.204Z,17.04
2016-08-12T05:06:06.935Z,17.13
2016-08-12T05:07:06.982Z,17.19
2016-08-12T05:08:07.661Z,17.24
2016-08-12T05:09:06.343Z,17.27
2016-08-12T05:10:07.707Z,17.28
2016-08-12T05:11:06.323Z,17.39
2016-08-12T05:12:07.101Z,17.38
2016-08-12T05:13:07.060Z,17.41
2016-08-12T05:14:06.461Z,17.59
2016-08-12T05:15:07.118Z,17.59
2016-08-12T05:16:07.175Z,17.78
2016-08-12T05:17:07.149Z,17.79
2016-08-12T05:18:07.882Z,17.98
2016-08-12T05:19:07.898Z,18.16
2016-08-12T05:20:07.217Z,18.28
2016-08-12T05:21:06.613Z,18.52
2016-08-12T05:22:07.257Z,18.82
2016-08-12T05:23:06.576Z,19.05
2016-08-12T05:24:08.023Z,19.27
2016-08-12T05:25:07.336Z,19.41
2016-08-12T05:26:07.369Z,19.39
2016-08-12T05:27:07.384Z,19.48
2016-08-12T05:28:07.394Z,19.39
2016-08-12T05:29:07.424Z,19.23
2016-08-12T05:30:08.163Z,19.01
2016-08-12T05:31:07.454Z,18.91
2016-08-12T05:32:07.491Z,18.81
2016-08-12T05:33:07.504Z,18.63
2016-08-12T05:34:07.550Z,18.52
2016-08-12T05:35:07.555Z,18.46
2016-08-12T05:36:07.645Z,18.39
2016-08-12T05:37:08.327Z,18.23
2016-08-12T05:38:08.446Z,18.19
2016-08-12T05:39:08.363Z,18.15
2016-08-12T05:40:08.473Z,18.12
2016-08-12T05:41:07.693Z,18.15
2016-08-12T05:42:08.433Z,18.16
2016-08-12T05:43:08.438Z,18.13
2016-08-12T05:44:07.758Z,18.19
2016-08-12T05:45:07.785Z,18.24
2016-08-12T05:46:08.513Z,18.28
2016-08-12T05:47:07.831Z,18.45
2016-08-12T05:48:08.562Z,18.41
2016-08-12T05:49:07.869Z,18.37
2016-08-12T05:50:08.618Z,18.34
2016-08-12T05:51:07.962Z,18.51
2016-08-12T05:52:07.290Z,18.51
2016-08-12T05:53:08.675Z,18.53
2016-08-12T05:54:08.713Z,18.53
2016-08-12T05:55:08.814Z,18.48
2016-08-12T05:56:08.733Z,18.49
2016-08-12T05:57:07.354Z,18.58
2016-08-12T05:58:08.163Z,18.61
2016-08-12T05:59:08.099Z,18.58
2016-08-12T06:00:08.832Z,18.61
2016-08-12T06:01:08.144Z,18.52
2016-08-12T06:02:08.259Z,18.51
2016-08-12T06:03:08.195Z,18.46
2016-08-12T06:04:08.911Z,18.46
2016-08-12T06:05:08.236Z,18.42
2016-08-12T06:06:08.322Z,18.36
2016-08-12T06:07:08.996Z,18.39
2016-08-12T06:08:08.304Z,18.41
2016-08-12T06:09:09.051Z,18.43
2016-08-12T06:10:08.377Z,18.28
2016-08-12T06:11:08.391Z,18.42
2016-08-12T06:12:08.413Z,18.39
2016-08-12T06:13:08.422Z,18.46
2016-08-12T06:14:09.152Z,18.36
2016-08-12T06:15:08.488Z,18.48
2016-08-12T06:16:09.192Z,18.49
2016-08-12T06:17:09.272Z,18.53
2016-08-12T06:18:09.232Z,18.57
2016-08-12T06:19:09.264Z,18.51
2016-08-12T06:20:08.606Z,18.55
2016-08-12T06:21:07.893Z,18.55
2016-08-12T06:22:09.352Z,18.49
2016-08-12T06:23:09.353Z,18.53
2016-08-12T06:24:09.499Z,18.51
2016-08-12T06:25:09.401Z,18.58
2016-08-12T06:26:08.730Z,18.55
2016-08-12T06:27:09.471Z,18.46
2016-08-12T06:28:09.509Z,18.46
2016-08-12T06:29:08.786Z,18.43
2016-08-12T06:30:08.118Z,18.43
2016-08-12T06:31:08.832Z,18.41
2016-08-12T06:32:08.164Z,18.41
2016-08-12T06:33:09.572Z,18.19
2016-08-12T06:34:08.907Z,18.28
2016-08-12T06:35:08.950Z,18.21
2016-08-12T06:36:09.665Z,18.26
2016-08-12T06:37:09.786Z,18.33
2016-08-12T06:38:08.284Z,18.31
2016-08-12T06:39:09.722Z,18.39
2016-08-12T06:40:09.742Z,18.39
2016-08-12T06:41:09.781Z,18.37
2016-08-12T06:42:09.082Z,18.43
2016-08-12T06:43:09.825Z,18.28
2016-08-12T06:44:08.493Z,18.42
2016-08-12T06:45:09.164Z,18.39
2016-08-12T06:46:09.270Z,18.51
2016-08-12T06:47:09.202Z,18.57
2016-08-12T06:48:09.974Z,18.6
2016-08-12T06:49:09.952Z,18.67
2016-08-12T06:50:10.031Z,18.67
2016-08-12T06:51:09.288Z,18.67
2016-08-12T06:52:09.360Z,18.74
2016-08-12T06:53:09.345Z,18.76
2016-08-12T06:54:09.351Z,18.81
2016-08-12T06:55:08.681Z,18.73
2016-08-12T06:56:09.425Z,18.79
2016-08-12T06:57:09.528Z,18.71
2016-08-12T06:58:08.752Z,18.67
2016-08-12T06:59:10.461Z,18.79
2016-08-12T07:00:08.782Z,18.66
2016-08-12T07:01:10.451Z,18.68
2016-08-12T07:02:09.555Z,18.68
2016-08-12T07:03:09.557Z,18.6
2016-08-12T07:04:10.500Z,18.58
2016-08-12T07:05:09.762Z,18.61
2016-08-12T07:06:09.864Z,18.6
2016-08-12T07:07:09.762Z,18.6
2016-08-12T07:08:09.863Z,18.53
2016-08-12T07:09:09.002Z,18.46
2016-08-12T07:10:09.809Z,18.36
2016-08-12T07:11:09.822Z,18.41
2016-08-12T07:12:10.592Z,18.45
2016-08-12T07:13:09.832Z,18.51
2016-08-12T07:14:10.546Z,18.6
2016-08-12T07:15:09.838Z,18.64
2016-08-12T07:16:09.855Z,18.67
2016-08-12T07:17:09.194Z,18.79
2016-08-12T07:18:09.923Z,18.76
2016-08-12T07:19:09.994Z,18.91
2016-08-12T07:20:09.254Z,18.85
2016-08-12T07:21:10.682Z,18.89
2016-08-12T07:22:10.002Z,18.89
2016-08-12T07:23:10.144Z,18.86
2016-08-12T07:24:10.761Z,18.79
2016-08-12T07:25:09.362Z,18.76
2016-08-12T07:26:10.810Z,18.67
2016-08-12T07:27:10.872Z,18.66
2016-08-12T07:28:09.422Z,18.79
2016-08-12T07:29:10.163Z,18.73
2016-08-12T07:30:10.892Z,18.78
2016-08-12T07:31:11.131Z,18.73
2016-08-12T07:32:10.938Z,18.89
2016-08-12T07:33:10.258Z,18.97
2016-08-12T07:34:10.282Z,19.17
2016-08-12T07:35:10.305Z,19.26
2016-08-12T07:36:11.027Z,19.45
2016-08-12T07:37:10.352Z,19.55
2016-08-12T07:38:10.384Z,19.6
2016-08-12T07:39:11.098Z,19.71
2016-08-12T07:40:10.427Z,19.7
2016-08-12T07:41:11.150Z,19.7
2016-08-12T07:42:11.162Z,19.67
2016-08-12T07:43:11.203Z,19.59
2016-08-12T07:44:11.230Z,19.52
2016-08-12T07:45:10.531Z,19.52
2016-08-12T07:46:10.051Z,19.35
2016-08-12T07:47:10.646Z,19.47
2016-08-12T07:48:11.330Z,19.32
2016-08-12T07:49:10.645Z,19.34
2016-08-12T07:50:11.382Z,19.34
2016-08-12T07:51:10.721Z,19.41
2016-08-12T07:52:11.464Z,19.37
2016-08-12T07:53:10.050Z,19.38
2016-08-12T07:54:10.754Z,19.39
2016-08-12T07:55:11.469Z,19.41
2016-08-12T07:56:10.886Z,19.48
2016-08-12T07:57:10.095Z,19.55
2016-08-12T07:58:10.883Z,19.56
2016-08-12T07:59:10.871Z,19.55
2016-08-12T08:00:11.642Z,19.63
2016-08-12T08:01:10.903Z,19.67
2016-08-12T08:02:10.993Z,19.66
2016-08-12T08:03:10.970Z,19.71
2016-08-12T08:04:10.997Z,19.82
2016-08-12T08:05:10.341Z,19.96
2016-08-12T08:06:11.032Z,20
2016-08-12T08:07:11.782Z,20.1
2016-08-12T08:08:11.058Z,20.08
2016-08-12T08:09:11.957Z,20.22
2016-08-12T08:10:11.122Z,20.21
2016-08-12T08:11:11.173Z,20.27
2016-08-12T08:12:11.169Z,20.27
2016-08-12T08:13:11.965Z,20.42
2016-08-12T08:14:11.919Z,20.4
2016-08-12T08:15:11.251Z,20.4
2016-08-12T08:16:11.959Z,20.52
2016-08-12T08:17:11.981Z,20.53
2016-08-12T08:18:12.015Z,20.56
2016-08-12T08:19:12.040Z,20.52
2016-08-12T08:20:11.420Z,20.55
2016-08-12T08:21:11.400Z,20.55
2016-08-12T08:22:12.095Z,20.58
2016-08-12T08:23:11.421Z,20.64
2016-08-12T08:24:11.483Z,20.67
2016-08-12T08:25:12.182Z,20.63
2016-08-12T08:26:10.801Z,20.58
2016-08-12T08:27:11.580Z,20.63
2016-08-12T08:28:10.852Z,20.74
2016-08-12T08:29:12.404Z,20.7
2016-08-12T08:30:12.301Z,20.88
2016-08-12T08:31:12.329Z,20.85
2016-08-12T08:32:10.950Z,20.85
2016-08-12T08:33:11.682Z,20.92
2016-08-12T08:34:11.700Z,20.98
2016-08-12T08:35:11.720Z,21.25
2016-08-12T08:36:12.461Z,21.54
2016-08-12T08:37:12.555Z,21.8
2016-08-12T08:38:11.091Z,21.92
2016-08-12T08:39:11.821Z,22
2016-08-12T08:40:12.559Z,22.07
2016-08-12T08:41:12.577Z,22.01
2016-08-12T08:42:11.900Z,22.14
2016-08-12T08:43:11.210Z,22.04
2016-08-12T08:44:11.938Z,22.07
2016-08-12T08:45:11.961Z,22.26
2016-08-12T08:46:11.991Z,22.49
2016-08-12T08:47:12.022Z,22.7
2016-08-12T08:48:12.040Z,22.67
2016-08-12T08:49:12.060Z,22.71
2016-08-12T08:50:12.099Z,22.89
2016-08-12T08:51:12.847Z,22.96
2016-08-12T08:52:12.133Z,23.13
2016-08-12T08:53:11.461Z,23.25
2016-08-12T08:54:12.191Z,23.4
2016-08-12T08:55:12.930Z,23.64
2016-08-12T08:56:12.978Z,23.91
2016-08-12T08:57:13.098Z,24.13
2016-08-12T08:58:12.297Z,24.25
2016-08-12T08:59:11.602Z,24.56
2016-08-12T09:00:11.633Z,24.77
2016-08-12T09:01:12.386Z,25.07
2016-08-12T09:02:11.692Z,25.31
2016-08-12T09:03:12.426Z,25.62
2016-08-12T09:04:11.739Z,25.76
2016-08-12T09:05:13.203Z,25.77
2016-08-12T09:06:12.539Z,25.8
2016-08-12T09:07:12.538Z,25.66
2016-08-12T09:08:12.583Z,25.59
2016-08-12T09:09:12.617Z,25.4
2016-08-12T09:10:13.330Z,25.03
2016-08-12T09:11:12.640Z,24.78
2016-08-12T09:12:12.677Z,24.47
2016-08-12T09:13:11.988Z,24.4
2016-08-12T09:14:12.010Z,24.18
2016-08-12T09:15:13.462Z,23.96
2016-08-12T09:16:12.772Z,23.92
2016-08-12T09:17:12.799Z,23.86
2016-08-12T09:18:13.537Z,23.67
2016-08-12T09:19:12.863Z,23.52
2016-08-12T09:20:12.878Z,23.45
2016-08-12T09:21:12.904Z,23.28
2016-08-12T09:22:12.926Z,23.16
2016-08-12T09:23:13.678Z,23.01
2016-08-12T09:24:13.709Z,22.8
2016-08-12T09:25:13.032Z,22.67
2016-08-12T09:26:12.391Z,22.67
2016-08-12T09:27:13.064Z,22.68
2016-08-12T09:28:13.812Z,22.55
2016-08-12T09:29:13.822Z,22.55
2016-08-12T09:30:12.482Z,22.49
2016-08-12T09:31:13.182Z,22.49
2016-08-12T09:32:13.902Z,22.44
2016-08-12T09:33:13.936Z,22.56
2016-08-12T09:34:13.966Z,22.52
2016-08-12T09:35:13.284Z,22.51
2016-08-12T09:36:13.290Z,22.37
2016-08-12T09:37:14.101Z,22.31
2016-08-12T09:38:14.222Z,22.06
2016-08-12T09:39:13.620Z,21.96
2016-08-12T09:40:13.691Z,21.85
2016-08-12T09:41:14.288Z,21.8
2016-08-12T09:42:14.207Z,21.68
2016-08-12T09:43:12.822Z,21.65
2016-08-12T09:44:14.208Z,21.6
2016-08-12T09:45:12.816Z,21.45
2016-08-12T09:46:13.623Z,21.44
2016-08-12T09:47:13.580Z,21.45
2016-08-12T09:48:14.310Z,21.54
2016-08-12T09:49:14.342Z,21.51
2016-08-12T09:50:13.989Z,21.45
2016-08-12T09:51:14.399Z,21.47
2016-08-12T09:52:14.531Z,21.4
2016-08-12T09:53:13.731Z,21.33
2016-08-12T09:54:13.784Z,21.26
2016-08-12T09:55:14.530Z,21.15
2016-08-12T09:56:14.532Z,21.11
2016-08-12T09:57:13.843Z,21.07
2016-08-12T09:58:13.858Z,21.07
2016-08-12T09:59:14.584Z,21.03
2016-08-12T10:00:14.632Z,21.03
2016-08-12T10:01:13.943Z,21.01
2016-08-12T10:02:13.968Z,21.03
2016-08-12T10:03:13.982Z,20.96
2016-08-12T10:04:14.022Z,20.95
2016-08-12T10:06:14.074Z,21.03
2016-08-12T10:07:14.089Z,21.26
2016-08-12T10:08:14.154Z,21.3
2016-08-12T10:09:14.827Z,21.54
2016-08-12T10:10:14.157Z,21.56
2016-08-12T10:11:14.183Z,21.63
2016-08-12T10:12:14.299Z,21.62
2016-08-12T10:13:14.233Z,21.65
2016-08-12T10:14:15.043Z,21.63
2016-08-12T10:15:13.582Z,21.65
2016-08-12T10:16:15.013Z,21.81
2016-08-12T10:17:14.343Z,21.85
2016-08-12T10:18:14.349Z,21.88
2016-08-12T10:19:14.411Z,21.7
2016-08-12T10:21:14.503Z,21.62
2016-08-12T10:22:14.453Z,21.7
2016-08-12T10:23:15.202Z,21.75
2016-08-12T10:24:15.202Z,21.81
2016-08-12T10:25:13.826Z,21.94
2016-08-12T10:26:13.863Z,21.88
2016-08-12T10:27:14.577Z,21.84
2016-08-12T10:28:14.700Z,21.96
2016-08-12T10:29:14.622Z,22.01
2016-08-12T10:30:15.371Z,22.01
2016-08-12T10:31:15.402Z,21.81
2016-08-12T10:32:14.815Z,21.85
2016-08-12T10:33:15.433Z,21.7
2016-08-12T10:34:15.462Z,21.65
2016-08-12T10:36:15.523Z,21.32
2016-08-12T10:37:14.842Z,21.26
2016-08-12T10:38:15.550Z,21.13
2016-08-12T10:39:15.593Z,21.05
2016-08-12T10:40:15.616Z,21.01
2016-08-12T10:41:14.273Z,21.11
2016-08-12T10:42:15.644Z,21.28
2016-08-12T10:43:15.001Z,21.48
2016-08-12T10:44:14.997Z,21.63
2016-08-12T10:45:15.749Z,22.06
2016-08-12T10:46:15.762Z,22.31
2016-08-12T10:47:15.863Z,22.56
2016-08-12T10:48:15.797Z,22.63
2016-08-12T10:49:15.861Z,22.71
2016-08-12T10:50:15.153Z,22.84
2016-08-12T10:51:15.193Z,22.84
2016-08-12T10:52:14.616Z,22.78
2016-08-12T10:53:15.926Z,22.71
2016-08-12T10:54:16.019Z,22.78
2016-08-12T10:55:15.274Z,22.76
2016-08-12T10:56:15.301Z,22.68
2016-08-12T10:57:16.018Z,22.62
2016-08-12T10:58:15.346Z,22.7
2016-08-12T10:59:16.081Z,22.77
2016-08-12T11:00:14.694Z,22.81
2016-08-12T11:01:15.422Z,22.83
2016-08-12T11:02:16.166Z,22.91
2016-08-12T11:03:15.492Z,22.96
2016-08-12T11:04:16.233Z,22.95
2016-08-12T11:05:14.832Z,23.07
2016-08-12T11:06:15.560Z,23.04
2016-08-12T11:07:16.314Z,23.06
2016-08-12T11:08:15.623Z,23.04
2016-08-12T11:09:16.431Z,22.86
2016-08-12T11:10:15.043Z,22.74
2016-08-12T11:11:15.692Z,22.71
2016-08-12T11:12:16.421Z,22.62
2016-08-12T11:13:16.446Z,22.43
2016-08-12T11:14:15.771Z,22.28
2016-08-12T11:15:15.861Z,22.14
2016-08-12T11:16:15.862Z,22.01
2016-08-12T11:17:15.834Z,22.08
2016-08-12T11:18:15.865Z,22.08
2016-08-12T11:19:16.594Z,22.12
2016-08-12T11:20:16.655Z,22.1
2016-08-12T11:21:16.664Z,22.07
2016-08-12T11:22:15.965Z,22.06
2016-08-12T11:23:16.702Z,22.16
2016-08-12T11:24:16.740Z,22.31
2016-08-12T11:25:16.744Z,22.43
2016-08-12T11:26:16.792Z,22.47
2016-08-12T11:27:16.121Z,22.65
2016-08-12T11:28:16.823Z,22.78
2016-08-12T11:29:16.139Z,22.81
2016-08-12T11:30:16.189Z,22.91
2016-08-12T11:31:16.970Z,22.8
2016-08-12T11:32:16.928Z,22.84
2016-08-12T11:33:17.002Z,22.61
2016-08-12T11:34:16.963Z,22.55
2016-08-12T11:35:17.012Z,22.4
2016-08-12T11:36:17.027Z,22.33
2016-08-12T11:37:17.075Z,22.25
2016-08-12T11:38:17.169Z,22.16
2016-08-12T11:39:16.404Z,22.12
2016-08-12T11:40:17.141Z,22.16
2016-08-12T11:41:17.171Z,22.18
2016-08-12T11:42:17.180Z,22.33
2016-08-12T11:43:17.201Z,22.58
2016-08-12T11:44:16.542Z,22.78
2016-08-12T11:45:17.240Z,22.91
2016-08-12T11:46:17.300Z,23.11
2016-08-12T11:47:17.316Z,23.29
2016-08-12T11:48:17.341Z,23.47
2016-08-12T11:49:17.473Z,23.77
2016-08-12T11:50:17.383Z,23.94
2016-08-12T11:51:17.446Z,24.03
2016-08-12T11:52:17.494Z,24.09
2016-08-12T11:53:16.851Z,24.24
2016-08-12T11:54:16.783Z,24.32
2016-08-12T11:55:17.510Z,24.48
2016-08-12T11:56:16.853Z,24.46
2016-08-12T11:57:17.561Z,24.37
2016-08-12T11:58:16.940Z,24.26
2016-08-12T11:59:17.607Z,24.18
2016-08-12T12:00:17.763Z,24.06
2016-08-12T12:01:16.964Z,23.89
2016-08-12T12:02:16.291Z,23.86
2016-08-12T12:03:17.736Z,23.74
2016-08-12T12:04:17.770Z,23.52
2016-08-12T12:05:17.755Z,23.4
2016-08-12T12:06:17.810Z,23.25
2016-08-12T12:07:17.855Z,23.07
2016-08-12T12:08:16.436Z,22.99
2016-08-12T12:09:17.982Z,22.89
2016-08-12T12:10:17.897Z,22.88
2016-08-12T12:11:18.001Z,22.56
2016-08-12T12:12:16.654Z,22.43
2016-08-12T12:13:18.042Z,22.33
2016-08-12T12:14:18.029Z,22.16
2016-08-12T12:15:18.045Z,22.18
2016-08-12T12:16:18.075Z,22.14
2016-08-12T12:17:18.084Z,22.3
2016-08-12T12:18:17.403Z,22.37
2016-08-12T12:19:18.141Z,22.55
2016-08-12T12:20:17.549Z,22.77
2016-08-12T12:21:17.503Z,22.92
2016-08-12T12:22:18.371Z,23.17
2016-08-12T12:23:18.258Z,23.01
2016-08-12T12:24:17.557Z,22.83
2016-08-12T12:25:17.591Z,22.76
2016-08-12T12:26:16.900Z,22.51
2016-08-12T12:27:17.736Z,22.41
2016-08-12T12:28:18.380Z,22.43
2016-08-12T12:29:17.800Z,22.67
2016-08-12T12:30:18.420Z,22.89
2016-08-12T12:31:18.544Z,23.26
2016-08-12T12:32:17.762Z,23.71
2016-08-12T12:33:17.801Z,23.95
2016-08-12T12:34:18.520Z,24.19
2016-08-12T12:35:17.929Z,24.21
2016-08-12T12:36:18.580Z,24.31
2016-08-12T12:37:17.888Z,24.38
2016-08-12T12:38:18.644Z,24.44
2016-08-12T12:39:18.650Z,24.44
2016-08-12T12:41:18.011Z,24.68
2016-08-12T12:42:18.031Z,24.69
2016-08-12T12:43:18.072Z,24.75
2016-08-12T12:44:18.070Z,24.75
2016-08-12T12:45:18.121Z,24.78
2016-08-12T12:46:18.131Z,24.93
2016-08-12T12:47:18.872Z,24.82
2016-08-12T12:48:18.905Z,24.77
2016-08-12T12:49:18.931Z,24.56
2016-08-12T12:50:18.950Z,24.47
2016-08-12T12:51:18.330Z,24.4
2016-08-12T12:52:19.051Z,24.25
2016-08-12T12:53:19.141Z,23.92
2016-08-12T12:54:18.344Z,23.95
2016-08-12T12:55:18.390Z,23.84
2016-08-12T12:56:18.398Z,23.73
2016-08-12T12:57:18.451Z,23.59
2016-08-12T12:58:18.451Z,23.25
2016-08-12T12:59:19.182Z,23.17
2016-08-12T13:00:18.522Z,22.98
2016-08-12T13:01:18.543Z,22.83
2016-08-12T13:02:19.282Z,22.65